Republic, Ohio
Current Conditions -  °F | °C
As of 8:12 AM on Thursday 30 Oct 2014 (Local Time) from KPCW Reporting Station
Broken Clouds Broken Clouds  
Wind Chill: 42°   Ceiling: 2400
Heat Index: 46°   Visibility: 10mi
Dew Point: 37°   Wind: 9mph
Humidity: 71%   Direction: 350°N
Pressure: 30.12"   Gusts: NA
Location:  41.12°N, 83.02°W
Report Text: KPCW 301212Z AUTO 35008KT 10SM BKN024 08/03 A3012 RMK AO2 $
Loading
Personal Weather Stations






























Interactive Weather Map New forecast layout! Learn more

10-Day Weather Forecast

Advertisements
Track Severe Weather on mobile